Terminal Aerodrome Forecast
Issued by NWS

Home | Current Version | Previous Version | Text Only | Print | Product List | Glossary On
Versions: 1 2 3 4 5 6 7 8 9 10 11 12 13 14 15 16 17 18
000
FTUS43 KAPX 240903 AAA
TAFAPN
TAF AMD
KAPN 240903Z 2409/2506 01014KT 5SM -SHRA BR OVC008
      TEMPO 2409/2412 3SM -SHRA BR
     FM241300 02012G20KT P6SM BKN017
     FM241500 03013G22KT P6SM BKN025
     FM241800 04009G18KT P6SM SCT035 SCT250
     FM242000 03009KT P6SM SCT250
     FM250200 VRB03KT P6SM FEW250=

USA.gov is the U.S. government's official web portal to all federal, state and local government web resources and services.